createdAt,value
2018-11-12T00:00:25.626Z,1.13
2018-11-12T00:02:57.842Z,1.00
2018-11-12T00:05:26.826Z,1.33
2018-11-12T00:07:56.034Z,0.90
2018-11-12T00:10:24.626Z,0.70
2018-11-12T00:12:57.874Z,1.60
2018-11-12T00:15:27.246Z,2.17
2018-11-12T00:17:59.445Z,1.20
2018-11-12T00:20:27.926Z,0.90
2018-11-12T00:25:33.537Z,0.90
2018-11-12T00:28:06.865Z,0.93
2018-11-12T00:30:35.832Z,0.83
2018-11-12T00:33:04.492Z,0.90
2018-11-12T00:35:33.166Z,1.17
2018-11-12T00:38:02.042Z,0.93
2018-11-12T00:40:31.370Z,1.00
2018-11-12T00:43:01.252Z,0.90
2018-11-12T00:45:30.201Z,1.20
2018-11-12T00:47:59.487Z,0.93
2018-11-12T00:50:28.515Z,0.90
2018-11-12T00:52:57.000Z,1.07
2018-11-12T00:55:25.873Z,1.17
2018-11-12T00:57:54.832Z,0.73
2018-11-12T01:00:24.165Z,0.70
2018-11-12T01:02:53.527Z,0.70
2018-11-12T01:05:34.507Z,0.83
2018-11-12T01:08:03.560Z,0.87
2018-11-12T01:10:33.191Z,0.67
2018-11-12T01:13:02.145Z,0.90
2018-11-12T01:15:32.025Z,0.60
2018-11-12T01:18:00.516Z,0.80
2018-11-12T01:20:33.342Z,0.80
2018-11-12T01:23:02.517Z,0.60
2018-11-12T01:25:34.473Z,0.73
2018-11-12T01:28:03.269Z,0.90
2018-11-12T01:30:31.777Z,1.10
2018-11-12T01:33:00.274Z,0.93
2018-11-12T01:35:29.258Z,0.97
2018-11-12T01:37:58.537Z,0.90
2018-11-12T01:40:27.325Z,1.50
2018-11-12T01:42:55.836Z,0.80
2018-11-12T01:45:24.333Z,0.73
2018-11-12T01:47:53.774Z,0.93
2018-11-12T01:50:22.339Z,0.70
2018-11-12T01:52:51.410Z,0.77
2018-11-12T01:55:20.365Z,0.80
2018-11-12T01:57:52.722Z,0.50
2018-11-12T02:00:22.160Z,1.20
2018-11-12T02:02:55.675Z,0.70
2018-11-12T02:05:24.642Z,0.90
2018-11-12T02:10:27.193Z,1.00
2018-11-12T02:12:56.293Z,0.87
2018-11-12T02:15:28.873Z,0.80
2018-11-12T02:17:57.805Z,0.90
2018-11-12T02:20:26.757Z,0.90
2018-11-12T02:22:56.171Z,0.70
2018-11-12T02:25:25.130Z,0.83
2018-11-12T02:27:53.733Z,0.90
2018-11-12T02:30:28.005Z,0.90
2018-11-12T02:32:57.965Z,0.70
2018-11-12T02:35:27.821Z,1.10
2018-11-12T02:37:57.206Z,1.00
2018-11-12T02:40:25.727Z,0.83
2018-11-12T02:42:56.983Z,1.20
2018-11-12T02:45:26.031Z,0.77
2018-11-12T02:47:55.037Z,1.20
2018-11-12T02:50:23.566Z,0.90
2018-11-12T02:52:52.832Z,0.90
2018-11-12T02:55:26.164Z,0.80
2018-11-12T02:57:54.658Z,0.90
2018-11-12T03:00:27.912Z,1.00
2018-11-12T03:02:56.445Z,0.80
2018-11-12T03:05:31.542Z,0.87
2018-11-12T03:08:00.861Z,1.00
2018-11-12T03:10:32.413Z,0.90
2018-11-12T03:13:01.390Z,0.70
2018-11-12T03:15:42.576Z,0.70
2018-11-12T03:18:11.562Z,1.00
2018-11-12T03:20:40.554Z,0.83
2018-11-12T03:23:09.341Z,0.87
2018-11-12T03:25:41.741Z,0.90
2018-11-12T03:28:10.690Z,0.90
2018-11-12T03:30:44.254Z,0.90
2018-11-12T03:33:12.764Z,1.23
2018-11-12T03:35:45.415Z,1.10
2018-11-12T03:38:13.975Z,1.10
2018-11-12T03:40:46.781Z,1.13
2018-11-12T03:43:16.046Z,1.23
2018-11-12T03:45:49.746Z,1.13
2018-11-12T03:48:18.375Z,1.00
2018-11-12T03:50:47.864Z,1.50
2018-11-12T03:53:19.653Z,1.87
2018-11-12T03:55:49.471Z,1.30
2018-11-12T03:58:18.960Z,1.70
2018-11-12T04:00:47.954Z,1.20
2018-11-12T04:03:17.245Z,1.20
2018-11-12T04:05:46.413Z,1.20
2018-11-12T04:08:15.364Z,1.70
2018-11-12T04:10:44.580Z,1.40
2018-11-12T04:13:13.521Z,0.93
2018-11-12T04:15:42.029Z,1.20
2018-11-12T04:18:10.817Z,1.17
2018-11-12T04:20:39.778Z,1.57
2018-11-12T04:23:13.082Z,1.37
2018-11-12T04:25:43.327Z,1.77
2018-11-12T04:28:16.229Z,1.70
2018-11-12T04:30:44.749Z,1.70
2018-11-12T04:33:17.847Z,2.07
2018-11-12T04:35:46.354Z,1.97
2018-11-12T04:38:20.711Z,2.07
2018-11-12T04:40:49.959Z,2.37
2018-11-12T04:43:31.282Z,1.30
2018-11-12T04:46:01.564Z,1.40
2018-11-12T04:48:30.582Z,1.27
2018-11-12T04:50:59.428Z,1.60
2018-11-12T04:53:28.468Z,1.50
2018-11-12T04:55:56.962Z,1.60
2018-11-12T04:58:31.820Z,1.93
2018-11-12T05:01:00.416Z,2.20
2018-11-12T05:03:32.759Z,2.20
2018-11-12T05:06:01.315Z,2.40
2018-11-12T05:08:36.842Z,2.93
2018-11-12T05:11:05.815Z,3.30
2018-11-12T05:13:47.105Z,3.47
2018-11-12T05:16:16.371Z,3.57
2018-11-12T05:18:45.562Z,3.80
2018-11-12T05:21:14.057Z,3.70
2018-11-12T05:23:43.639Z,2.93
2018-11-12T05:26:12.570Z,2.90
2018-11-12T05:28:53.675Z,3.13
2018-11-12T05:31:22.901Z,3.30
2018-11-12T05:33:51.435Z,3.70
2018-11-12T05:36:19.936Z,3.60
2018-11-12T05:38:51.870Z,4.23
2018-11-12T05:41:20.385Z,4.30
2018-11-12T05:43:53.416Z,3.90
2018-11-12T05:46:22.249Z,4.50
2018-11-12T05:48:57.701Z,4.23
2018-11-12T05:51:26.981Z,4.30
2018-11-12T05:53:59.073Z,3.93
2018-11-12T05:56:27.564Z,3.67
2018-11-12T05:59:03.216Z,3.00
2018-11-12T06:01:32.198Z,2.70
2018-11-12T06:04:05.574Z,2.80
2018-11-12T06:06:34.870Z,2.33
2018-11-12T06:09:11.227Z,3.20
2018-11-12T06:11:40.643Z,2.83
2018-11-12T06:14:13.049Z,3.00
2018-11-12T06:16:42.041Z,3.23
2018-11-12T06:19:14.522Z,2.50
2018-11-12T06:21:43.478Z,2.67
2018-11-12T06:24:16.803Z,2.67
2018-11-12T06:26:45.312Z,2.87
2018-11-12T06:29:19.181Z,2.50
2018-11-12T06:31:48.490Z,4.57
2018-11-12T06:34:21.010Z,2.70
2018-11-12T06:36:50.096Z,3.70
2018-11-12T06:39:23.491Z,17.93
2018-11-12T06:44:25.397Z,12.37
2018-11-12T06:46:55.076Z,9.73
2018-11-12T06:51:58.843Z,10.00
2018-11-12T06:54:31.390Z,16.47
2018-11-12T06:56:59.997Z,24.53
2018-11-12T06:59:33.496Z,17.97
2018-11-12T07:02:02.355Z,25.33
2018-11-12T07:04:34.802Z,25.97
2018-11-12T07:07:04.421Z,8.30
2018-11-12T07:12:07.251Z,11.97
2018-11-12T07:14:36.668Z,13.33
2018-11-12T07:17:08.689Z,13.77
2018-11-12T07:19:38.472Z,8.80
2018-11-12T07:22:07.570Z,13.00
2018-11-12T07:24:36.249Z,19.67
2018-11-12T07:27:04.997Z,18.97
2018-11-12T07:29:33.486Z,22.53
2018-11-12T07:32:02.687Z,16.60
2018-11-12T07:34:32.835Z,8.30
2018-11-12T07:37:01.611Z,7.17
2018-11-12T07:39:30.603Z,7.33
2018-11-12T07:41:59.479Z,10.87
2018-11-12T07:44:28.376Z,10.70
2018-11-12T07:47:10.300Z,14.97
2018-11-12T07:49:39.397Z,13.73
2018-11-12T07:52:08.370Z,13.67
2018-11-12T07:54:36.965Z,13.50
2018-11-12T07:57:07.151Z,12.83
2018-11-12T07:59:37.305Z,12.70
2018-11-12T08:02:11.303Z,10.90
2018-11-12T08:04:40.960Z,8.93
2018-11-12T08:07:14.084Z,8.17
2018-11-12T08:09:43.487Z,7.70
2018-11-12T08:12:16.465Z,7.40
2018-11-12T08:14:45.518Z,7.27
2018-11-12T08:17:18.654Z,7.33
2018-11-12T08:19:48.267Z,8.20
2018-11-12T08:22:20.906Z,7.40
2018-11-12T08:24:50.175Z,8.17
2018-11-12T08:27:24.569Z,8.87
2018-11-12T08:29:53.321Z,8.40
2018-11-12T08:32:34.215Z,9.60
2018-11-12T08:35:03.829Z,9.10
2018-11-12T08:37:33.774Z,7.53
2018-11-12T08:40:03.668Z,7.60
2018-11-12T08:42:34.957Z,8.40
2018-11-12T08:45:05.685Z,8.13
2018-11-12T08:47:34.973Z,8.47
2018-11-12T08:50:05.810Z,8.27
2018-11-12T08:52:35.898Z,9.13
2018-11-12T08:55:05.045Z,8.67
2018-11-12T08:57:38.209Z,7.13
2018-11-12T09:00:09.157Z,6.63
2018-11-12T09:02:43.458Z,6.40
2018-11-12T09:05:14.117Z,6.57
2018-11-12T09:07:47.525Z,6.30
2018-11-12T09:10:17.085Z,7.13
2018-11-12T09:12:49.578Z,7.00
2018-11-12T09:15:18.719Z,7.37
2018-11-12T09:17:50.945Z,7.17
2018-11-12T09:20:21.465Z,6.97
2018-11-12T09:22:54.929Z,8.10
2018-11-12T09:25:24.756Z,7.63
2018-11-12T09:27:55.322Z,6.87
2018-11-12T09:30:26.050Z,7.23
2018-11-12T09:33:07.714Z,5.83
2018-11-12T09:35:38.310Z,6.00
2018-11-12T09:38:07.605Z,5.37
2018-11-12T09:40:38.847Z,5.20
2018-11-12T09:43:07.598Z,6.57
2018-11-12T09:45:36.759Z,6.43
2018-11-12T09:48:10.219Z,4.47
2018-11-12T09:50:39.828Z,4.53
2018-11-12T09:53:13.032Z,4.57
2018-11-12T09:55:42.046Z,3.60
2018-11-12T09:58:15.260Z,3.73
2018-11-12T10:00:44.570Z,3.70
2018-11-12T10:03:17.440Z,3.33
2018-11-12T10:05:47.298Z,3.03
2018-11-12T10:08:21.335Z,3.10
2018-11-12T10:10:53.254Z,2.80
2018-11-12T10:13:29.778Z,2.93
2018-11-12T10:15:59.993Z,2.33
2018-11-12T10:18:25.866Z,2.20
2018-11-12T10:20:54.381Z,1.80
2018-11-12T10:23:26.405Z,2.10
2018-11-12T10:25:55.558Z,2.20
2018-11-12T10:28:37.266Z,1.83
2018-11-12T10:31:06.890Z,1.73
2018-11-12T10:33:35.958Z,1.87
2018-11-12T10:36:05.666Z,1.80
2018-11-12T10:38:35.036Z,1.63
2018-11-12T10:41:04.853Z,2.00
2018-11-12T10:43:38.101Z,3.57
2018-11-12T10:46:08.478Z,3.43
2018-11-12T10:48:38.066Z,2.67
2018-11-12T10:51:06.602Z,3.60
2018-11-12T10:53:49.844Z,2.93
2018-11-12T10:56:10.370Z,3.00
2018-11-12T10:58:51.218Z,2.27
2018-11-12T11:01:25.518Z,2.93
2018-11-12T11:04:00.470Z,2.87
2018-11-12T11:06:29.909Z,3.40
2018-11-12T11:08:58.673Z,3.13
2018-11-12T11:11:27.699Z,3.30
2018-11-12T11:13:57.382Z,3.30
2018-11-12T11:16:26.631Z,4.27
2018-11-12T11:18:56.518Z,3.53
2018-11-12T11:21:26.794Z,2.97
2018-11-12T11:23:59.357Z,3.00
2018-11-12T11:26:27.887Z,3.33
2018-11-12T11:29:01.805Z,3.60
2018-11-12T11:31:31.654Z,4.10
2018-11-12T11:34:04.746Z,3.20
2018-11-12T11:36:33.905Z,3.40
2018-11-12T11:39:07.177Z,2.77
2018-11-12T11:41:35.707Z,2.50
2018-11-12T11:44:11.538Z,3.43
2018-11-12T11:46:40.981Z,3.37
2018-11-12T11:49:15.516Z,3.50
2018-11-12T11:51:45.904Z,3.60
2018-11-12T11:54:18.814Z,3.70
2018-11-12T11:56:48.350Z,3.80
2018-11-12T11:59:22.118Z,8.20
2018-11-12T12:01:51.375Z,4.03
2018-11-12T12:04:22.442Z,4.00
2018-11-12T12:06:52.576Z,4.30
2018-11-12T12:09:24.675Z,5.57
2018-11-12T12:11:56.777Z,9.27
2018-11-12T12:14:26.885Z,6.83
2018-11-12T12:16:55.406Z,4.63
2018-11-12T12:19:29.605Z,4.17
2018-11-12T12:21:58.153Z,4.30
2018-11-12T12:24:34.024Z,5.23
2018-11-12T12:27:03.240Z,4.80
2018-11-12T12:29:36.206Z,4.60
2018-11-12T12:32:08.063Z,4.20
2018-11-12T12:34:37.085Z,5.20
2018-11-12T12:37:06.255Z,5.17
2018-11-12T12:39:39.815Z,5.73
2018-11-12T12:42:09.193Z,6.07
2018-11-12T12:44:41.546Z,6.90
2018-11-12T12:47:11.453Z,7.33
2018-11-12T12:49:52.902Z,8.33
2018-11-12T12:52:22.761Z,8.97
2018-11-12T12:54:51.739Z,9.03
2018-11-12T12:57:20.799Z,8.80
2018-11-12T12:59:50.671Z,10.53
2018-11-12T13:02:19.865Z,10.83
2018-11-12T13:04:53.687Z,11.53
2018-11-12T13:07:23.629Z,12.33
2018-11-12T13:09:56.813Z,13.17
2018-11-12T13:12:25.835Z,14.17
2018-11-12T13:15:08.436Z,14.43
2018-11-12T13:17:37.424Z,14.53
2018-11-12T13:20:07.228Z,15.10
2018-11-12T13:22:36.375Z,16.87
2018-11-12T13:25:07.246Z,15.87
2018-11-12T13:27:37.562Z,17.27
2018-11-12T13:30:12.447Z,15.67
2018-11-12T13:32:41.457Z,15.83
2018-11-12T13:35:13.413Z,16.73
2018-11-12T13:37:43.635Z,15.73
2018-11-12T13:40:16.315Z,14.97
2018-11-12T13:42:47.091Z,13.57
2018-11-12T13:45:16.957Z,15.03
2018-11-12T13:47:46.846Z,13.57
2018-11-12T13:50:21.318Z,12.20
2018-11-12T13:52:52.772Z,11.80
2018-11-12T13:55:23.274Z,10.00
2018-11-12T13:57:52.102Z,11.17
2018-11-12T14:00:27.000Z,10.23
2018-11-12T14:02:56.398Z,10.47
2018-11-12T14:05:27.202Z,10.77
2018-11-12T14:07:57.155Z,10.23
2018-11-12T14:10:30.864Z,9.90
2018-11-12T14:13:01.414Z,8.93
2018-11-12T14:15:33.715Z,9.53
2018-11-12T14:18:03.554Z,9.27
2018-11-12T14:20:36.241Z,9.37
2018-11-12T14:23:04.767Z,9.83
2018-11-12T14:25:38.679Z,9.80
2018-11-12T14:28:07.874Z,9.80
2018-11-12T14:30:40.503Z,9.90
2018-11-12T14:33:09.432Z,9.83
2018-11-12T14:35:42.459Z,10.60
2018-11-12T14:38:12.403Z,9.67
2018-11-12T14:40:48.514Z,8.80
2018-11-12T14:43:18.831Z,10.00
2018-11-12T14:45:47.869Z,9.20
2018-11-12T14:48:17.934Z,9.77
2018-11-12T14:51:04.432Z,9.83
2018-11-12T14:53:34.642Z,7.80
2018-11-12T14:56:04.564Z,7.10
2018-11-12T14:58:33.813Z,7.37
2018-11-12T15:01:03.682Z,7.27
2018-11-12T15:03:32.804Z,8.47
2018-11-12T15:06:01.388Z,7.87
2018-11-12T15:08:30.319Z,7.60
2018-11-12T15:11:04.739Z,8.93
2018-11-12T15:13:34.334Z,8.07
2018-11-12T15:16:05.556Z,7.90
2018-11-12T15:18:34.157Z,8.40
2018-11-12T15:21:09.151Z,7.90
2018-11-12T15:23:38.608Z,7.23
2018-11-12T15:26:10.886Z,8.10
2018-11-12T15:28:40.152Z,7.37
2018-11-12T15:31:12.829Z,7.60
2018-11-12T15:33:42.590Z,7.73
2018-11-12T15:36:23.683Z,8.03
2018-11-12T15:38:52.585Z,7.77
2018-11-12T15:41:21.732Z,7.40
2018-11-12T15:43:50.284Z,7.47
2018-11-12T15:46:20.569Z,7.03
2018-11-12T15:48:50.279Z,7.90
2018-11-12T15:51:22.380Z,8.27
2018-11-12T15:53:51.694Z,7.90
2018-11-12T15:56:26.256Z,7.83
2018-11-12T15:58:57.203Z,7.17
2018-11-12T16:01:27.423Z,7.27
2018-11-12T16:03:56.909Z,7.13
2018-11-12T16:06:29.079Z,7.17
2018-11-12T16:08:58.662Z,7.20
2018-11-12T16:11:32.359Z,6.87
2018-11-12T16:16:23.961Z,7.20
2018-11-12T16:18:53.739Z,7.97
2018-11-12T16:21:23.794Z,7.73
2018-11-12T16:23:54.375Z,7.60
2018-11-12T16:26:23.389Z,7.40
2018-11-12T16:28:53.296Z,7.23
2018-11-12T16:31:22.233Z,7.63
2018-11-12T16:33:51.271Z,6.40
2018-11-12T16:38:56.406Z,7.47
2018-11-12T16:41:26.110Z,7.33
2018-11-12T16:43:56.556Z,7.30
2018-11-12T16:46:27.308Z,7.20
2018-11-12T16:48:56.786Z,7.23
2018-11-12T16:51:26.397Z,6.87
2018-11-12T16:53:55.546Z,7.57
2018-11-12T16:56:25.670Z,8.53
2018-11-12T16:58:57.983Z,7.90
2018-11-12T17:01:27.410Z,8.93
2018-11-12T17:04:01.000Z,8.87
2018-11-12T17:06:29.701Z,9.10
2018-11-12T17:09:04.649Z,9.57
2018-11-12T17:11:33.730Z,8.97
2018-11-12T17:14:08.645Z,9.27
2018-11-12T17:16:38.253Z,10.37
2018-11-12T17:19:11.176Z,10.37
2018-11-12T17:21:40.293Z,10.40
2018-11-12T17:24:13.455Z,9.57
2018-11-12T17:26:42.246Z,9.97
2018-11-12T17:29:15.544Z,11.63
2018-11-12T17:31:44.373Z,11.80
2018-11-12T17:34:17.042Z,11.50
2018-11-12T17:36:46.460Z,10.87
2018-11-12T17:39:19.787Z,11.33
2018-11-12T17:41:48.787Z,13.10
2018-11-12T17:44:21.176Z,12.47
2018-11-12T17:46:50.777Z,12.47
2018-11-12T17:49:26.431Z,12.80
2018-11-12T17:51:57.411Z,13.37
2018-11-12T17:54:27.021Z,14.17
2018-11-12T17:56:57.057Z,14.47
2018-11-12T17:59:29.858Z,13.60
2018-11-12T18:01:58.958Z,12.87
2018-11-12T18:04:40.163Z,14.23
2018-11-12T18:07:08.818Z,14.17
2018-11-12T18:09:39.096Z,23.70
2018-11-12T18:12:09.766Z,27.37
2018-11-12T18:14:40.114Z,32.10
2018-11-12T18:17:08.811Z,36.03
2018-11-12T18:19:39.801Z,32.27
2018-11-12T18:22:09.706Z,30.80
2018-11-12T18:24:41.378Z,27.60
2018-11-12T18:27:10.703Z,28.70
2018-11-12T18:29:44.488Z,24.73
2018-11-12T18:32:13.778Z,21.57
2018-11-12T18:34:46.398Z,21.67
2018-11-12T18:37:16.158Z,19.77
2018-11-12T18:39:50.653Z,18.87
2018-11-12T18:42:20.689Z,17.77
2018-11-12T18:44:57.390Z,17.37
2018-11-12T18:47:26.177Z,17.73
2018-11-12T18:49:58.050Z,16.67
2018-11-12T18:52:27.483Z,16.37
2018-11-12T18:55:00.539Z,16.97
2018-11-12T18:57:30.272Z,17.73
2018-11-12T19:00:03.005Z,18.40
2018-11-12T19:02:33.227Z,19.03
2018-11-12T19:05:06.237Z,19.30
2018-11-12T19:07:35.243Z,18.23
2018-11-12T19:10:12.030Z,19.13
2018-11-12T19:12:41.148Z,18.60
2018-11-12T19:15:16.484Z,17.90
2018-11-12T19:17:46.319Z,18.30
2018-11-12T19:20:15.685Z,17.87
2018-11-12T19:22:44.227Z,15.13
2018-11-12T19:25:17.869Z,16.30
2018-11-12T19:27:47.242Z,15.57
2018-11-12T19:30:21.429Z,13.77
2018-11-12T19:32:51.690Z,14.00
2018-11-12T19:35:25.066Z,12.13
2018-11-12T19:37:54.090Z,12.33
2018-11-12T19:40:27.167Z,12.13
2018-11-12T19:42:57.626Z,8.83
2018-11-12T19:45:28.531Z,6.90
2018-11-12T19:47:57.546Z,6.10
2018-11-12T19:50:33.037Z,6.10
2018-11-12T19:53:03.412Z,6.63
2018-11-12T19:55:44.409Z,6.47
2018-11-12T19:58:13.703Z,7.07
2018-11-12T20:00:42.615Z,8.37
2018-11-12T20:03:13.092Z,9.70
2018-11-12T20:05:42.394Z,20.03
2018-11-12T20:08:11.024Z,11.40
2018-11-12T20:10:41.226Z,11.23
2018-11-12T20:13:12.209Z,13.73
2018-11-12T20:15:43.382Z,11.67
2018-11-12T20:18:12.555Z,9.13
2018-11-12T20:20:46.617Z,8.53
2018-11-12T20:23:16.491Z,7.50
2018-11-12T20:25:51.384Z,6.57
2018-11-12T20:28:19.908Z,6.47
2018-11-12T20:30:50.369Z,5.87
2018-11-12T20:33:20.313Z,5.23
2018-11-12T20:35:57.025Z,5.40
2018-11-12T20:38:25.949Z,4.77
2018-11-12T20:40:56.290Z,4.60
2018-11-12T20:43:25.828Z,5.47
2018-11-12T20:46:01.345Z,4.70
2018-11-12T20:48:33.840Z,5.30
2018-11-12T20:51:06.491Z,5.20
2018-11-12T20:53:35.523Z,5.17
2018-11-12T20:56:09.011Z,4.93
2018-11-12T20:58:39.658Z,4.40
2018-11-12T21:01:09.755Z,4.43
2018-11-12T21:03:39.041Z,4.63
2018-11-12T21:06:21.679Z,4.27
2018-11-12T21:08:50.653Z,4.60
2018-11-12T21:11:20.850Z,5.63
2018-11-12T21:13:50.465Z,4.53
2018-11-12T21:16:20.385Z,5.37
2018-11-12T21:18:50.221Z,4.40
2018-11-12T21:21:19.221Z,5.00
2018-11-12T21:23:50.320Z,5.33
2018-11-12T21:26:22.134Z,5.20
2018-11-12T21:28:52.394Z,5.90
2018-11-12T21:31:24.458Z,5.07
2018-11-12T21:33:53.290Z,5.63
2018-11-12T21:36:29.644Z,4.53
2018-11-12T21:38:59.033Z,4.67
2018-11-12T21:41:29.390Z,4.87
2018-11-12T21:43:58.197Z,4.87
2018-11-12T21:46:32.292Z,4.70
2018-11-12T21:49:02.350Z,5.37
2018-11-12T21:51:38.471Z,5.33
2018-11-12T21:54:07.149Z,5.13
2018-11-12T21:56:39.712Z,5.67
2018-11-12T21:59:08.982Z,7.03
2018-11-12T22:01:41.238Z,8.20
2018-11-12T22:04:14.251Z,8.47
2018-11-12T22:06:43.390Z,6.93
2018-11-12T22:09:11.921Z,6.77
2018-11-12T22:11:45.836Z,6.07
2018-11-12T22:14:15.541Z,7.13
2018-11-12T22:16:53.128Z,7.90
2018-11-12T22:19:22.162Z,6.33
2018-11-12T22:21:53.726Z,6.60
2018-11-12T22:24:22.943Z,7.30
2018-11-12T22:26:54.074Z,6.90
2018-11-12T22:29:23.513Z,6.63
2018-11-12T22:31:58.119Z,6.60
2018-11-12T22:34:27.230Z,6.77
2018-11-12T22:37:00.194Z,7.40
2018-11-12T22:39:30.091Z,6.00
2018-11-12T22:42:04.525Z,6.40
2018-11-12T22:44:36.491Z,6.50
2018-11-12T22:47:06.571Z,7.77
2018-11-12T22:49:35.610Z,9.67
2018-11-12T22:52:17.105Z,10.77
2018-11-12T22:54:46.722Z,7.90
2018-11-12T22:57:15.554Z,6.63
2018-11-12T22:59:44.639Z,5.80
2018-11-12T23:02:13.426Z,5.23
2018-11-12T23:04:42.718Z,5.03
2018-11-12T23:07:16.816Z,7.00
2018-11-12T23:09:45.628Z,11.23
2018-11-12T23:12:17.842Z,7.00
2018-11-12T23:14:46.926Z,7.33
2018-11-12T23:17:20.244Z,4.23
2018-11-12T23:19:48.873Z,3.80
2018-11-12T23:22:20.312Z,2.97
2018-11-12T23:24:50.273Z,3.33
2018-11-12T23:27:19.069Z,2.90
2018-11-12T23:29:48.078Z,2.97
2018-11-12T23:32:16.873Z,3.20
2018-11-12T23:34:46.161Z,2.93
2018-11-12T23:37:14.685Z,3.10
2018-11-12T23:39:43.226Z,5.40
2018-11-12T23:42:12.215Z,8.50
2018-11-12T23:44:42.076Z,7.43
2018-11-12T23:47:11.702Z,7.60
2018-11-12T23:49:40.980Z,6.63
2018-11-12T23:52:10.762Z,6.27
2018-11-12T23:54:42.740Z,5.10
2018-11-12T23:57:11.268Z,4.67
2018-11-12T23:59:44.183Z,5.27
